createdAt,value
2017-03-08T00:00:25.609Z,5.85
2017-03-08T00:01:26.024Z,5.89
2017-03-08T00:02:26.058Z,5.91
2017-03-08T00:03:26.085Z,5.88
2017-03-08T00:04:25.724Z,5.98
2017-03-08T00:05:26.149Z,5.92
2017-03-08T00:06:26.176Z,5.96
2017-03-08T00:07:25.810Z,5.93
2017-03-08T00:08:26.258Z,5.98
2017-03-08T00:09:26.300Z,5.98
2017-03-08T00:10:25.923Z,5.98
2017-03-08T00:11:26.368Z,5.98
2017-03-08T00:12:25.978Z,6.04
2017-03-08T00:13:26.796Z,5.95
2017-03-08T00:14:26.058Z,5.95
2017-03-08T00:15:26.473Z,5.98
2017-03-08T00:16:26.506Z,6.01
2017-03-08T00:17:26.543Z,6.09
2017-03-08T00:18:26.571Z,6.01
2017-03-08T00:19:26.212Z,6.06
2017-03-08T00:20:26.637Z,5.98
2017-03-08T00:21:26.665Z,6.1
2017-03-08T00:22:26.303Z,6.07
2017-03-08T00:23:26.759Z,6.03
2017-03-08T00:24:26.785Z,6.09
2017-03-08T00:25:26.813Z,5.93
2017-03-08T00:26:26.836Z,6.03
2017-03-08T00:27:26.859Z,6.11
2017-03-08T00:28:26.891Z,6.03
2017-03-08T00:29:26.543Z,6.04
2017-03-08T00:30:26.970Z,6
2017-03-08T00:31:26.604Z,5.92
2017-03-08T00:32:26.652Z,6.01
2017-03-08T00:33:27.073Z,6.03
2017-03-08T00:34:27.090Z,6.04
2017-03-08T00:35:27.507Z,6
2017-03-08T00:36:27.156Z,6.07
2017-03-08T00:37:27.193Z,5.91
2017-03-08T00:38:26.832Z,6.06
2017-03-08T00:39:27.264Z,5.92
2017-03-08T00:40:26.899Z,5.96
2017-03-08T00:41:27.329Z,5.92
2017-03-08T00:42:27.363Z,5.92
2017-03-08T00:43:27.375Z,5.86
2017-03-08T00:44:27.041Z,5.92
2017-03-08T00:45:27.445Z,5.91
2017-03-08T00:46:27.086Z,5.91
2017-03-08T00:47:27.119Z,6.06
2017-03-08T00:48:27.179Z,5.93
2017-03-08T00:49:27.579Z,5.93
2017-03-08T00:50:27.219Z,5.89
2017-03-08T00:51:27.258Z,5.95
2017-03-08T00:52:27.690Z,5.95
2017-03-08T00:53:27.722Z,5.96
2017-03-08T00:54:27.739Z,5.98
2017-03-08T00:55:27.377Z,5.98
2017-03-08T00:56:27.806Z,5.89
2017-03-08T00:57:27.840Z,5.92
2017-03-08T00:58:27.871Z,5.91
2017-03-08T00:59:27.899Z,5.92
2017-03-08T01:00:27.540Z,5.89
2017-03-08T01:01:27.961Z,5.96
2017-03-08T01:02:27.620Z,5.89
2017-03-08T01:03:27.637Z,5.86
2017-03-08T01:04:28.061Z,5.89
2017-03-08T01:05:27.701Z,5.86
2017-03-08T01:06:28.143Z,5.78
2017-03-08T01:07:27.773Z,5.89
2017-03-08T01:08:27.801Z,5.86
2017-03-08T01:09:27.832Z,5.83
2017-03-08T01:10:27.867Z,5.81
2017-03-08T01:11:27.897Z,5.83
2017-03-08T01:12:28.310Z,5.78
2017-03-08T01:13:27.964Z,5.81
2017-03-08T01:14:28.010Z,5.67
2017-03-08T01:15:28.409Z,5.71
2017-03-08T01:16:28.462Z,5.78
2017-03-08T01:17:28.474Z,5.77
2017-03-08T01:18:28.526Z,5.7
2017-03-08T01:19:28.549Z,5.68
2017-03-08T01:20:28.590Z,5.7
2017-03-08T01:21:28.608Z,5.6
2017-03-08T01:22:28.256Z,5.64
2017-03-08T01:23:28.677Z,5.63
2017-03-08T01:24:28.318Z,5.64
2017-03-08T01:25:28.348Z,5.63
2017-03-08T01:26:28.380Z,5.66
2017-03-08T01:27:28.798Z,5.67
2017-03-08T01:28:28.449Z,5.68
2017-03-08T01:29:28.893Z,5.66
2017-03-08T01:30:28.509Z,5.64
2017-03-08T01:31:28.550Z,5.67
2017-03-08T01:32:28.979Z,5.6
2017-03-08T01:33:28.604Z,5.7
2017-03-08T01:34:29.038Z,5.7
2017-03-08T01:35:28.670Z,5.71
2017-03-08T01:36:29.090Z,5.7
2017-03-08T01:37:29.128Z,5.7
2017-03-08T01:38:29.166Z,5.7
2017-03-08T01:39:28.794Z,5.77
2017-03-08T01:40:29.234Z,5.73
2017-03-08T01:41:29.267Z,5.86
2017-03-08T01:42:28.902Z,5.83
2017-03-08T01:43:29.323Z,5.85
2017-03-08T01:44:28.967Z,5.78
2017-03-08T01:45:28.992Z,5.78
2017-03-08T01:46:29.416Z,5.78
2017-03-08T01:47:29.464Z,5.71
2017-03-08T01:48:29.480Z,5.86
2017-03-08T01:49:29.116Z,5.73
2017-03-08T01:50:29.543Z,5.78
2017-03-08T01:51:29.576Z,5.78
2017-03-08T01:52:29.622Z,5.88
2017-03-08T01:53:29.248Z,5.77
2017-03-08T01:54:29.285Z,5.88
2017-03-08T01:55:29.707Z,5.88
2017-03-08T01:56:29.338Z,5.83
2017-03-08T01:57:29.381Z,5.85
2017-03-08T01:58:29.809Z,5.88
2017-03-08T01:59:29.436Z,5.85
2017-03-08T02:00:29.862Z,5.93
2017-03-08T02:01:29.900Z,5.88
2017-03-08T02:02:29.958Z,5.88
2017-03-08T02:03:30.013Z,5.78
2017-03-08T02:04:29.615Z,5.89
2017-03-08T02:05:30.032Z,5.88
2017-03-08T02:06:29.661Z,5.89
2017-03-08T02:07:30.101Z,5.81
2017-03-08T02:08:30.124Z,5.82
2017-03-08T02:09:29.758Z,5.92
2017-03-08T02:10:30.191Z,5.92
2017-03-08T02:11:29.825Z,5.89
2017-03-08T02:12:30.282Z,5.92
2017-03-08T02:13:29.907Z,5.91
2017-03-08T02:14:30.316Z,5.92
2017-03-08T02:15:29.963Z,5.89
2017-03-08T02:16:30.394Z,5.88
2017-03-08T02:17:30.418Z,5.89
2017-03-08T02:18:30.451Z,5.85
2017-03-08T02:19:30.099Z,5.89
2017-03-08T02:20:30.522Z,5.91
2017-03-08T02:21:30.559Z,5.88
2017-03-08T02:22:30.191Z,5.93
2017-03-08T02:23:30.218Z,5.89
2017-03-08T02:24:30.649Z,5.86
2017-03-08T02:25:30.683Z,5.82
2017-03-08T02:26:30.329Z,5.83
2017-03-08T02:27:30.738Z,5.78
2017-03-08T02:28:30.398Z,5.77
2017-03-08T02:29:30.417Z,5.86
2017-03-08T02:30:30.850Z,5.73
2017-03-08T02:31:30.471Z,5.6
2017-03-08T02:32:30.529Z,5.53
2017-03-08T02:33:30.546Z,5.55
2017-03-08T02:34:30.575Z,5.52
2017-03-08T02:35:31.392Z,5.43
2017-03-08T02:36:30.634Z,5.53
2017-03-08T02:37:30.662Z,5.4
2017-03-08T02:38:31.093Z,5.45
2017-03-08T02:39:30.742Z,5.52
2017-03-08T02:40:30.764Z,5.53
2017-03-08T02:41:30.794Z,5.45
2017-03-08T02:42:31.233Z,5.43
2017-03-08T02:43:31.255Z,5.37
2017-03-08T02:44:30.897Z,5.32
2017-03-08T02:45:31.327Z,5.35
2017-03-08T02:46:31.005Z,5.41
2017-03-08T02:47:30.986Z,5.38
2017-03-08T02:48:31.037Z,5.43
2017-03-08T02:49:31.445Z,5.43
2017-03-08T02:50:31.095Z,5.3
2017-03-08T02:51:31.520Z,5.3
2017-03-08T02:52:31.146Z,5.35
2017-03-08T02:53:31.583Z,5.34
2017-03-08T02:54:31.224Z,5.35
2017-03-08T02:55:31.258Z,5.32
2017-03-08T02:56:31.270Z,5.37
2017-03-08T02:57:32.094Z,5.35
2017-03-08T02:58:31.359Z,5.37
2017-03-08T02:59:31.766Z,5.3
2017-03-08T03:00:31.807Z,5.34
2017-03-08T03:01:31.857Z,5.38
2017-03-08T03:02:31.862Z,5.34
2017-03-08T03:03:31.894Z,5.4
2017-03-08T03:04:31.928Z,5.34
2017-03-08T03:05:31.564Z,5.32
2017-03-08T03:06:31.984Z,5.38
2017-03-08T03:07:31.646Z,5.37
2017-03-08T03:08:31.685Z,5.41
2017-03-08T03:09:31.696Z,5.43
2017-03-08T03:10:32.119Z,5.52
2017-03-08T03:11:31.804Z,5.5
2017-03-08T03:12:31.799Z,5.56
2017-03-08T03:13:32.230Z,5.59
2017-03-08T03:14:32.250Z,5.52
2017-03-08T03:15:31.887Z,5.55
2017-03-08T03:16:31.935Z,5.59
2017-03-08T03:17:32.343Z,5.73
2017-03-08T03:18:32.369Z,5.68
2017-03-08T03:19:32.036Z,5.73
2017-03-08T03:20:32.462Z,5.78
2017-03-08T03:21:32.097Z,5.7
2017-03-08T03:22:32.132Z,5.77
2017-03-08T03:23:32.139Z,5.78
2017-03-08T03:24:32.181Z,5.81
2017-03-08T03:25:32.206Z,5.81
2017-03-08T03:26:32.680Z,5.89
2017-03-08T03:27:32.663Z,5.92
2017-03-08T03:28:32.713Z,5.86
2017-03-08T03:29:32.577Z,5.93
2017-03-08T03:30:32.809Z,5.98
2017-03-08T03:31:32.794Z,5.93
2017-03-08T03:32:32.824Z,5.93
2017-03-08T03:33:32.473Z,5.96
2017-03-08T03:34:32.506Z,6.03
2017-03-08T03:35:32.955Z,6
2017-03-08T03:36:32.569Z,6.03
2017-03-08T03:37:33.007Z,6.06
2017-03-08T03:38:32.653Z,6.03
2017-03-08T03:39:32.674Z,6.04
2017-03-08T03:40:33.093Z,6.16
2017-03-08T03:41:33.118Z,6.1
2017-03-08T03:42:32.767Z,6.11
2017-03-08T03:43:32.825Z,6.13
2017-03-08T03:44:33.233Z,6.11
2017-03-08T03:45:32.867Z,6.16
2017-03-08T03:46:32.896Z,6.14
2017-03-08T03:47:32.934Z,6.21
2017-03-08T03:48:32.984Z,6.18
2017-03-08T03:49:33.012Z,6.22
2017-03-08T03:50:33.423Z,6.16
2017-03-08T03:51:33.445Z,6.28
2017-03-08T03:52:33.107Z,6.26
2017-03-08T03:53:33.510Z,6.18
2017-03-08T03:54:33.553Z,6.26
2017-03-08T03:55:33.620Z,6.32
2017-03-08T03:56:33.213Z,6.3
2017-03-08T03:57:33.248Z,6.32
2017-03-08T03:58:33.297Z,6.29
2017-03-08T03:59:33.716Z,6.36
2017-03-08T04:00:33.375Z,6.4
2017-03-08T04:01:33.375Z,6.33
2017-03-08T04:02:33.418Z,6.38
2017-03-08T04:03:33.444Z,6.4
2017-03-08T04:04:33.868Z,6.41
2017-03-08T04:05:33.902Z,6.44
2017-03-08T04:06:33.552Z,6.38
2017-03-08T04:07:33.573Z,6.43
2017-03-08T04:08:34.108Z,6.4
2017-03-08T04:09:33.645Z,6.44
2017-03-08T04:10:33.667Z,6.43
2017-03-08T04:11:34.106Z,6.5
2017-03-08T04:12:33.734Z,6.46
2017-03-08T04:13:34.167Z,6.43
2017-03-08T04:14:33.798Z,6.38
2017-03-08T04:15:33.835Z,6.46
2017-03-08T04:16:33.864Z,6.54
2017-03-08T04:17:33.895Z,6.46
2017-03-08T04:18:33.933Z,6.48
2017-03-08T04:19:33.979Z,6.51
2017-03-08T04:20:33.995Z,6.46
2017-03-08T04:21:34.043Z,6.58
2017-03-08T04:22:34.077Z,6.44
2017-03-08T04:23:34.103Z,6.56
2017-03-08T04:24:34.135Z,6.47
2017-03-08T04:25:34.987Z,6.53
2017-03-08T04:26:34.585Z,6.62
2017-03-08T04:27:34.221Z,6.58
2017-03-08T04:28:34.693Z,6.59
2017-03-08T04:29:34.295Z,6.53
2017-03-08T04:30:34.711Z,6.56
2017-03-08T04:31:34.754Z,6.63
2017-03-08T04:32:34.388Z,6.63
2017-03-08T04:33:34.832Z,6.61
2017-03-08T04:34:34.493Z,6.61
2017-03-08T04:35:34.490Z,6.63
2017-03-08T04:36:34.529Z,6.66
2017-03-08T04:37:34.552Z,6.59
2017-03-08T04:38:34.979Z,6.69
2017-03-08T04:39:34.612Z,6.56
2017-03-08T04:40:34.658Z,6.58
2017-03-08T04:41:35.095Z,6.54
2017-03-08T04:42:34.715Z,6.56
2017-03-08T04:43:34.761Z,6.54
2017-03-08T04:44:35.172Z,6.47
2017-03-08T04:45:34.811Z,6.51
2017-03-08T04:46:34.841Z,6.51
2017-03-08T04:47:34.888Z,6.47
2017-03-08T04:48:34.918Z,6.36
2017-03-08T04:49:34.939Z,6.4
2017-03-08T04:50:34.973Z,6.41
2017-03-08T04:51:35.012Z,6.43
2017-03-08T04:52:35.053Z,6.33
2017-03-08T04:53:35.094Z,6.33
2017-03-08T04:54:35.499Z,6.36
2017-03-08T04:55:35.541Z,6.33
2017-03-08T04:56:35.561Z,6.36
2017-03-08T04:57:35.607Z,6.36
2017-03-08T04:58:35.240Z,6.28
2017-03-08T04:59:35.266Z,6.18
2017-03-08T05:00:35.696Z,6.35
2017-03-08T05:01:35.332Z,6.3
2017-03-08T05:02:35.754Z,6.25
2017-03-08T05:03:35.792Z,6.29
2017-03-08T05:04:35.818Z,6.28
2017-03-08T05:05:35.873Z,6.26
2017-03-08T05:06:35.886Z,6.19
2017-03-08T05:07:35.531Z,6.13
2017-03-08T05:08:35.555Z,6.14
2017-03-08T05:09:35.599Z,6.14
2017-03-08T05:10:35.626Z,6.11
2017-03-08T05:11:36.056Z,6.13
2017-03-08T05:12:36.125Z,6.13
2017-03-08T05:13:35.731Z,6.13
2017-03-08T05:14:35.743Z,6.04
2017-03-08T05:15:35.784Z,6.13
2017-03-08T05:16:35.830Z,6.14
2017-03-08T05:17:36.251Z,6.1
2017-03-08T05:18:35.875Z,6.09
2017-03-08T05:19:35.908Z,6.11
2017-03-08T05:20:35.952Z,6.04
2017-03-08T05:21:35.974Z,6.1
2017-03-08T05:22:36.005Z,6.01
2017-03-08T05:23:36.431Z,6.06
2017-03-08T05:24:36.068Z,5.98
2017-03-08T05:25:36.553Z,6.04
2017-03-08T05:26:36.151Z,5.95
2017-03-08T05:27:36.563Z,6
2017-03-08T05:28:36.210Z,5.98
2017-03-08T05:29:36.230Z,5.98
2017-03-08T05:30:36.661Z,5.91
2017-03-08T05:31:36.690Z,6.06
2017-03-08T05:32:36.323Z,5.91
2017-03-08T05:33:36.759Z,5.91
2017-03-08T05:34:36.779Z,5.88
2017-03-08T05:35:36.824Z,5.93
2017-03-08T05:36:36.473Z,5.91
2017-03-08T05:37:36.885Z,5.93
2017-03-08T05:38:36.909Z,5.88
2017-03-08T05:39:36.554Z,5.86
2017-03-08T05:40:36.610Z,5.86
2017-03-08T05:41:36.615Z,5.83
2017-03-08T05:42:37.055Z,5.83
2017-03-08T05:43:37.072Z,5.75
2017-03-08T05:44:36.706Z,5.81
2017-03-08T05:45:37.135Z,5.78
2017-03-08T05:46:36.792Z,5.73
2017-03-08T05:47:36.810Z,5.86
2017-03-08T05:48:36.854Z,5.77
2017-03-08T05:49:37.275Z,5.77
2017-03-08T05:50:36.920Z,5.85
2017-03-08T05:51:37.332Z,5.83
2017-03-08T05:52:36.966Z,5.81
2017-03-08T05:53:37.395Z,5.81
2017-03-08T05:54:37.422Z,5.78
2017-03-08T05:55:37.473Z,5.82
2017-03-08T05:56:37.481Z,5.86
2017-03-08T05:57:37.524Z,5.86
2017-03-08T05:58:37.553Z,5.81
2017-03-08T05:59:37.197Z,5.86
2017-03-08T06:00:37.240Z,5.92
2017-03-08T06:01:38.092Z,5.83
2017-03-08T06:02:37.678Z,5.88
2017-03-08T06:03:37.723Z,5.85
2017-03-08T06:04:37.788Z,5.89
2017-03-08T06:05:37.395Z,5.92
2017-03-08T06:06:37.439Z,5.91
2017-03-08T06:07:37.861Z,6
2017-03-08T06:08:37.885Z,5.92
2017-03-08T06:09:37.520Z,5.95
2017-03-08T06:10:37.939Z,5.96
2017-03-08T06:11:37.966Z,6.06
2017-03-08T06:12:38.396Z,6.04
2017-03-08T06:13:37.641Z,6.06
2017-03-08T06:14:37.678Z,6.09
2017-03-08T06:15:37.706Z,6.07
2017-03-08T06:16:37.731Z,6.11
2017-03-08T06:17:38.163Z,6.11
2017-03-08T06:18:37.807Z,6.11
2017-03-08T06:19:37.837Z,6.09
2017-03-08T06:20:37.867Z,6.28
2017-03-08T06:21:37.928Z,6.21
2017-03-08T06:22:38.321Z,6.16
2017-03-08T06:23:38.018Z,6.25
2017-03-08T06:24:37.999Z,6.28
2017-03-08T06:25:38.817Z,6.25
2017-03-08T06:26:38.083Z,6.33
2017-03-08T06:27:38.500Z,6.35
2017-03-08T06:28:38.140Z,6.4
2017-03-08T06:29:38.566Z,6.43
2017-03-08T06:30:38.582Z,6.4
2017-03-08T06:31:39.044Z,6.47
2017-03-08T06:32:38.265Z,6.51
2017-03-08T06:33:38.295Z,6.51
2017-03-08T06:34:38.733Z,6.59
2017-03-08T06:35:38.758Z,6.59
2017-03-08T06:36:38.787Z,6.59
2017-03-08T06:37:38.822Z,6.63
2017-03-08T06:38:38.851Z,6.63
2017-03-08T06:39:38.883Z,6.71
2017-03-08T06:40:38.932Z,6.65
2017-03-08T06:41:38.956Z,6.68
2017-03-08T06:42:38.582Z,6.72
2017-03-08T06:43:38.623Z,6.71
2017-03-08T06:44:39.051Z,6.8
2017-03-08T06:45:38.700Z,6.69
2017-03-08T06:46:38.731Z,6.8
2017-03-08T06:47:38.767Z,6.84
2017-03-08T06:48:39.187Z,6.8
2017-03-08T06:49:38.845Z,6.86
2017-03-08T06:50:39.276Z,6.84
2017-03-08T06:51:39.425Z,6.86
2017-03-08T06:52:40.312Z,6.94
2017-03-08T06:53:38.954Z,6.9
2017-03-08T06:54:39.476Z,6.98
2017-03-08T06:55:39.621Z,6.86
2017-03-08T06:56:39.444Z,6.97
2017-03-08T06:57:39.100Z,7.02
2017-03-08T06:58:39.203Z,7.01
2017-03-08T06:59:39.164Z,6.99
2017-03-08T07:00:39.184Z,6.97
2017-03-08T07:01:39.230Z,7.05
2017-03-08T07:02:39.260Z,7.04
2017-03-08T07:03:39.685Z,7.12
2017-03-08T07:04:39.772Z,7.04
2017-03-08T07:05:39.774Z,6.99
2017-03-08T07:06:39.401Z,7.04
2017-03-08T07:07:40.131Z,7.13
2017-03-08T07:08:39.588Z,7.13
2017-03-08T07:09:39.761Z,7.09
2017-03-08T07:10:39.567Z,7.13
2017-03-08T07:11:39.946Z,7.08
2017-03-08T07:12:39.716Z,7.19
2017-03-08T07:13:40.023Z,7.13
2017-03-08T07:14:40.185Z,7.2
2017-03-08T07:15:40.140Z,7.12
2017-03-08T07:16:39.725Z,7.2
2017-03-08T07:17:39.785Z,7.29
2017-03-08T07:18:39.800Z,7.17
2017-03-08T07:19:39.834Z,7.13
2017-03-08T07:20:39.875Z,7.12
2017-03-08T07:21:40.691Z,7.24
2017-03-08T07:22:40.325Z,7.2
2017-03-08T07:23:40.054Z,7.29
2017-03-08T07:24:40.011Z,7.12
2017-03-08T07:25:40.438Z,7.2
2017-03-08T07:26:40.078Z,7.23
2017-03-08T07:27:40.096Z,7.24
2017-03-08T07:28:40.547Z,7.17
2017-03-08T07:29:40.177Z,7.22
2017-03-08T07:30:40.216Z,7.16
2017-03-08T07:31:40.619Z,7.13
2017-03-08T07:32:40.868Z,7.2
2017-03-08T07:33:40.293Z,7.2
2017-03-08T07:34:40.734Z,7.15
2017-03-08T07:35:41.251Z,7.2
2017-03-08T07:36:40.826Z,7.23
2017-03-08T07:37:40.429Z,7.08
2017-03-08T07:38:40.852Z,7.27
2017-03-08T07:39:41.287Z,7.08
2017-03-08T07:40:40.981Z,7.12
2017-03-08T07:41:41.155Z,7.19
2017-03-08T07:42:40.676Z,7.22
2017-03-08T07:43:41.080Z,7.2
2017-03-08T07:44:41.051Z,7.23
2017-03-08T07:45:40.716Z,7.2
2017-03-08T07:46:40.799Z,7.2
2017-03-08T07:47:41.156Z,7.22
2017-03-08T07:48:40.956Z,7.23
2017-03-08T07:49:41.621Z,7.29
2017-03-08T07:50:41.272Z,7.22
2017-03-08T07:51:40.903Z,7.27
2017-03-08T07:52:41.341Z,7.35
2017-03-08T07:53:40.969Z,7.29
2017-03-08T07:54:41.402Z,7.29
2017-03-08T07:55:41.046Z,7.23
2017-03-08T07:56:41.109Z,7.26
2017-03-08T07:57:41.153Z,7.34
2017-03-08T07:58:41.557Z,7.37
2017-03-08T07:59:41.553Z,7.26
2017-03-08T08:00:41.209Z,7.32
2017-03-08T08:01:41.645Z,7.26
2017-03-08T08:02:41.281Z,7.27
2017-03-08T08:03:41.695Z,7.41
2017-03-08T08:04:41.342Z,7.41
2017-03-08T08:05:41.759Z,7.44
2017-03-08T08:06:41.422Z,7.5
2017-03-08T08:07:41.844Z,7.55
2017-03-08T08:08:41.475Z,7.42
2017-03-08T08:09:41.928Z,7.42
2017-03-08T08:10:41.928Z,7.5
2017-03-08T08:11:41.585Z,7.53
2017-03-08T08:12:42.025Z,7.45
2017-03-08T08:13:41.691Z,7.49
2017-03-08T08:14:41.677Z,7.47
2017-03-08T08:15:42.101Z,7.52
2017-03-08T08:16:42.133Z,7.52
2017-03-08T08:17:42.192Z,7.49
2017-03-08T08:18:42.202Z,7.55
2017-03-08T08:19:41.843Z,7.52
2017-03-08T08:20:42.279Z,7.55
2017-03-08T08:21:42.310Z,7.45
2017-03-08T08:22:41.944Z,7.56
2017-03-08T08:23:42.367Z,7.66
2017-03-08T08:24:42.431Z,7.56
2017-03-08T08:25:42.058Z,7.63
2017-03-08T08:26:42.141Z,7.59
2017-03-08T08:27:42.122Z,7.59
2017-03-08T08:28:42.557Z,7.69
2017-03-08T08:29:42.571Z,7.74
2017-03-08T08:30:42.221Z,7.77
2017-03-08T08:31:42.688Z,7.71
2017-03-08T08:32:42.381Z,7.74
2017-03-08T08:33:42.324Z,7.81
2017-03-08T08:34:42.741Z,7.85
2017-03-08T08:35:42.780Z,7.81
2017-03-08T08:36:42.811Z,7.74
2017-03-08T08:37:42.482Z,7.85
2017-03-08T08:38:42.880Z,7.75
2017-03-08T08:39:42.920Z,7.89
2017-03-08T08:40:42.559Z,7.97
2017-03-08T08:41:43.010Z,7.87
2017-03-08T08:42:43.017Z,7.96
2017-03-08T08:43:43.039Z,8.04
2017-03-08T08:44:43.122Z,8.08
2017-03-08T08:45:43.124Z,8.1
2017-03-08T08:46:42.759Z,8.25
2017-03-08T08:47:42.790Z,8.2
2017-03-08T08:48:42.841Z,8.3
2017-03-08T08:49:43.258Z,8.3
2017-03-08T08:50:42.900Z,8.39
2017-03-08T08:51:42.933Z,8.37
2017-03-08T08:52:43.369Z,8.39
2017-03-08T08:53:43.018Z,8.51
2017-03-08T08:54:43.442Z,8.48
2017-03-08T08:55:43.073Z,8.51
2017-03-08T08:56:43.109Z,8.47
2017-03-08T08:57:43.541Z,8.53
2017-03-08T08:58:43.563Z,8.48
2017-03-08T08:59:43.265Z,8.53
2017-03-08T09:00:43.657Z,8.6
2017-03-08T09:01:43.717Z,8.63
2017-03-08T09:02:43.712Z,8.6
2017-03-08T09:03:43.375Z,8.72
2017-03-08T09:04:43.419Z,8.71
2017-03-08T09:05:43.819Z,8.73
2017-03-08T09:06:43.859Z,8.99
2017-03-08T09:07:43.907Z,9.13
2017-03-08T09:08:43.983Z,9.34
2017-03-08T09:09:43.623Z,9.58
2017-03-08T09:10:43.634Z,9.73
2017-03-08T09:11:44.448Z,9.96
2017-03-08T09:12:44.074Z,10.03
2017-03-08T09:13:44.095Z,10.12
2017-03-08T09:14:44.132Z,10.26
2017-03-08T09:15:43.818Z,10.21
2017-03-08T09:16:43.810Z,10.4
2017-03-08T09:17:44.258Z,10.59
2017-03-08T09:18:43.888Z,10.65
2017-03-08T09:19:44.332Z,10.76
2017-03-08T09:20:44.348Z,10.8
2017-03-08T09:21:44.387Z,10.94
2017-03-08T09:22:44.061Z,10.99
2017-03-08T09:23:44.241Z,11.02
2017-03-08T09:24:44.504Z,11.1
2017-03-08T09:25:44.537Z,11.21
2017-03-08T09:26:44.604Z,11.43
2017-03-08T09:27:44.921Z,11.59
2017-03-08T09:28:44.262Z,11.78
2017-03-08T09:29:44.709Z,12.19
2017-03-08T09:30:44.727Z,12.64
2017-03-08T09:31:44.419Z,13.04
2017-03-08T09:32:44.460Z,13.37
2017-03-08T09:33:44.635Z,13.69
2017-03-08T09:34:44.914Z,14.14
2017-03-08T09:35:44.558Z,14.39
2017-03-08T09:36:44.583Z,14.74
2017-03-08T09:37:44.631Z,15.06
2017-03-08T09:38:45.067Z,15.38
2017-03-08T09:39:44.725Z,15.54
2017-03-08T09:40:45.145Z,15.7
2017-03-08T09:41:44.791Z,15.93
2017-03-08T09:42:45.326Z,16.09
2017-03-08T09:43:44.898Z,16.06
2017-03-08T09:44:45.331Z,16
2017-03-08T09:45:44.995Z,16.07
2017-03-08T09:46:45.013Z,16.06
2017-03-08T09:47:45.471Z,16.14
2017-03-08T09:48:45.109Z,16.27
2017-03-08T09:49:45.542Z,16.35
2017-03-08T09:50:45.201Z,16.42
2017-03-08T09:51:46.021Z,16.49
2017-03-08T09:52:45.283Z,16.38
2017-03-08T09:53:45.375Z,16.2
2017-03-08T09:54:45.829Z,16.04
2017-03-08T09:55:45.425Z,15.94
2017-03-08T09:56:45.481Z,15.82
2017-03-08T09:57:45.900Z,15.81
2017-03-08T09:58:45.956Z,15.63
2017-03-08T09:59:45.986Z,15.61
2017-03-08T10:00:46.028Z,15.46
2017-03-08T10:01:46.063Z,15.27
2017-03-08T10:02:45.730Z,15.28
2017-03-08T10:03:45.782Z,15.21
2017-03-08T10:04:46.205Z,15.35
2017-03-08T10:05:45.866Z,15.61
2017-03-08T10:06:45.913Z,15.96
2017-03-08T10:07:45.935Z,16.04
2017-03-08T10:08:46.025Z,16.18
2017-03-08T10:09:46.431Z,16.2
2017-03-08T10:10:46.480Z,15.99
2017-03-08T10:11:46.535Z,15.86
2017-03-08T10:12:46.564Z,15.68
2017-03-08T10:13:46.621Z,15.56
2017-03-08T10:14:46.272Z,15.35
2017-03-08T10:15:46.285Z,15.21
2017-03-08T10:16:46.320Z,15.13
2017-03-08T10:17:46.386Z,15.08
2017-03-08T10:18:46.806Z,14.95
2017-03-08T10:19:46.472Z,14.94
2017-03-08T10:20:46.882Z,14.88
2017-03-08T10:21:46.933Z,14.95
2017-03-08T10:22:46.979Z,14.69
2017-03-08T10:23:47.034Z,14.62
2017-03-08T10:24:47.044Z,14.46
2017-03-08T10:25:47.108Z,14.39
2017-03-08T10:26:47.532Z,14.38
2017-03-08T10:27:47.164Z,14.29
2017-03-08T10:28:47.211Z,14.31
2017-03-08T10:29:46.869Z,14.28
2017-03-08T10:30:46.896Z,14.24
2017-03-08T10:31:46.939Z,14.28
2017-03-08T10:32:46.998Z,14.12
2017-03-08T10:33:47.202Z,14.13
2017-03-08T10:34:47.061Z,13.95
2017-03-08T10:35:47.503Z,13.94
2017-03-08T10:36:47.151Z,13.8
2017-03-08T10:37:47.574Z,13.83
2017-03-08T10:38:48.019Z,13.74
2017-03-08T10:39:47.271Z,13.81
2017-03-08T10:40:47.327Z,13.89
2017-03-08T10:41:48.324Z,13.98
2017-03-08T10:42:47.385Z,14.07
2017-03-08T10:43:47.418Z,14.07
2017-03-08T10:44:47.863Z,13.94
2017-03-08T10:45:47.891Z,13.8
2017-03-08T10:46:47.930Z,13.7
2017-03-08T10:47:47.578Z,13.74
2017-03-08T10:48:47.625Z,13.58
2017-03-08T10:49:48.045Z,13.59
2017-03-08T10:50:48.097Z,13.59
2017-03-08T10:51:47.736Z,13.65
2017-03-08T10:52:47.823Z,13.74
2017-03-08T10:53:48.230Z,13.76
2017-03-08T10:54:47.895Z,13.84
2017-03-08T10:55:47.909Z,13.96
2017-03-08T10:56:47.953Z,14.12
2017-03-08T10:57:48.391Z,14.12
2017-03-08T10:58:48.029Z,14.2
2017-03-08T10:59:48.077Z,14.29
2017-03-08T11:00:48.114Z,14.28
2017-03-08T11:01:48.571Z,14.42
2017-03-08T11:02:48.617Z,14.39
2017-03-08T11:03:48.652Z,14.42
2017-03-08T11:04:48.707Z,14.35
2017-03-08T11:05:48.692Z,14.21
2017-03-08T11:06:49.327Z,14.28
2017-03-08T11:07:48.799Z,14.27
2017-03-08T11:08:48.466Z,14.39
2017-03-08T11:09:48.897Z,14.44
2017-03-08T11:10:48.970Z,14.47
2017-03-08T11:11:48.976Z,14.53
2017-03-08T11:12:49.011Z,14.5
2017-03-08T11:13:49.059Z,14.52
2017-03-08T11:14:49.112Z,14.65
2017-03-08T11:15:49.149Z,14.62
2017-03-08T11:16:48.795Z,14.6
2017-03-08T11:17:49.237Z,14.62
2017-03-08T11:18:49.281Z,14.64
2017-03-08T11:19:49.329Z,14.67
2017-03-08T11:20:48.965Z,14.75
2017-03-08T11:21:49.077Z,14.71
2017-03-08T11:22:49.447Z,14.67
2017-03-08T11:23:49.092Z,14.71
2017-03-08T11:24:49.533Z,14.87
2017-03-08T11:25:49.584Z,14.9
2017-03-08T11:26:49.617Z,14.94
2017-03-08T11:27:49.701Z,14.86
2017-03-08T11:28:49.320Z,14.94
2017-03-08T11:29:49.758Z,14.87
2017-03-08T11:30:49.788Z,14.84
2017-03-08T11:31:49.841Z,14.8
2017-03-08T11:32:49.871Z,14.61
2017-03-08T11:33:49.960Z,14.38
2017-03-08T11:34:49.568Z,14.29
2017-03-08T11:35:50.008Z,14.27
2017-03-08T11:36:49.653Z,14.31
2017-03-08T11:37:49.689Z,14.31
2017-03-08T11:38:50.125Z,14.27
2017-03-08T11:39:49.836Z,14.34
2017-03-08T11:40:50.281Z,14.34
2017-03-08T11:41:49.866Z,14.27
2017-03-08T11:42:49.896Z,14.31
2017-03-08T11:43:50.344Z,14.25
2017-03-08T11:44:50.378Z,14.32
2017-03-08T11:45:50.015Z,14.25
2017-03-08T11:46:50.066Z,14.17
2017-03-08T11:47:50.105Z,14.2
2017-03-08T11:48:50.140Z,14.19
2017-03-08T11:49:50.570Z,14.17
2017-03-08T11:50:50.618Z,14.13
2017-03-08T11:51:50.282Z,14.1
2017-03-08T11:52:51.149Z,14.1
2017-03-08T11:53:50.359Z,14.12
2017-03-08T11:54:50.785Z,14.13
2017-03-08T11:55:50.446Z,14.06
2017-03-08T11:56:50.876Z,13.91
2017-03-08T11:57:50.537Z,13.98
2017-03-08T11:58:50.569Z,14.02
2017-03-08T11:59:50.600Z,13.98
2017-03-08T12:00:51.033Z,13.99
2017-03-08T12:01:50.686Z,14.09
2017-03-08T12:02:50.723Z,13.99
2017-03-08T12:03:50.747Z,13.98
2017-03-08T12:04:51.189Z,13.92
2017-03-08T12:05:50.842Z,13.95
2017-03-08T12:06:50.868Z,13.87
2017-03-08T12:07:50.910Z,13.77
2017-03-08T12:08:50.972Z,13.76
2017-03-08T12:09:50.986Z,13.67
2017-03-08T12:10:51.031Z,13.54
2017-03-08T12:11:51.067Z,13.44
2017-03-08T12:12:51.526Z,13.4
2017-03-08T12:13:51.541Z,13.33
2017-03-08T12:14:51.572Z,13.36
2017-03-08T12:15:51.227Z,13.38
2017-03-08T12:16:51.263Z,13.38
2017-03-08T12:17:51.314Z,13.36
2017-03-08T12:18:51.782Z,13.38
2017-03-08T12:19:51.384Z,13.4
2017-03-08T12:20:51.428Z,13.36
2017-03-08T12:21:51.847Z,13.3
2017-03-08T12:22:51.907Z,13.36
2017-03-08T12:23:51.954Z,13.29
2017-03-08T12:24:51.985Z,13.21
2017-03-08T12:25:51.616Z,13.18
2017-03-08T12:26:51.679Z,13.17
2017-03-08T12:27:51.694Z,13.17
2017-03-08T12:28:52.145Z,13.12
2017-03-08T12:29:51.791Z,13.21
2017-03-08T12:30:51.904Z,13.17
2017-03-08T12:31:51.854Z,13.27
2017-03-08T12:32:52.383Z,13.32
2017-03-08T12:33:51.945Z,13.37
2017-03-08T12:34:52.360Z,13.4
2017-03-08T12:35:52.007Z,13.41
2017-03-08T12:36:52.055Z,13.38
2017-03-08T12:37:52.079Z,13.38
2017-03-08T12:38:52.140Z,13.36
2017-03-08T12:39:52.173Z,13.33
2017-03-08T12:40:52.206Z,13.33
2017-03-08T12:41:52.642Z,13.32
2017-03-08T12:42:52.296Z,13.17
2017-03-08T12:43:52.715Z,13.2
2017-03-08T12:44:52.752Z,13.3
2017-03-08T12:45:52.802Z,13.21
2017-03-08T12:46:52.438Z,13.21
2017-03-08T12:47:52.872Z,13.21
2017-03-08T12:48:52.509Z,13.09
2017-03-08T12:49:52.560Z,13.21
2017-03-08T12:50:52.613Z,13.11
2017-03-08T12:51:53.029Z,13.06
2017-03-08T12:52:52.670Z,13.02
2017-03-08T12:53:53.099Z,13.02
2017-03-08T12:54:52.759Z,12.99
2017-03-08T12:55:53.171Z,12.88
2017-03-08T12:56:52.816Z,12.88
2017-03-08T12:57:53.255Z,12.92
2017-03-08T12:58:52.925Z,12.81
2017-03-08T12:59:53.346Z,12.81
2017-03-08T13:00:52.985Z,12.82
2017-03-08T13:01:53.087Z,12.85
2017-03-08T13:02:53.060Z,12.81
2017-03-08T13:03:53.489Z,12.78
2017-03-08T13:04:53.122Z,12.82
2017-03-08T13:05:53.174Z,12.82
2017-03-08T13:06:53.595Z,12.85
2017-03-08T13:07:53.646Z,12.79
2017-03-08T13:08:53.692Z,12.79
2017-03-08T13:09:53.720Z,12.81
2017-03-08T13:10:53.373Z,12.78
2017-03-08T13:11:53.791Z,12.75
2017-03-08T13:12:53.831Z,12.71
2017-03-08T13:13:53.474Z,12.7